sensor_id;sensor_type;location;lat;lon;timestamp;P1;durP1;ratioP1;P2;durP2;ratioP2
46447;SDS011;32145;50.390;30.778;2023-09-19T00:00:48;18.77;;;12.52;;
46447;SDS011;32145;50.390;30.778;2023-09-19T00:03:45;20.23;;;13.40;;
46447;SDS011;32145;50.390;30.778;2023-09-19T00:06:42;19.35;;;12.70;;
46447;SDS011;32145;50.390;30.778;2023-09-19T00:09:39;18.33;;;12.85;;
46447;SDS011;32145;50.390;30.778;2023-09-19T00:12:35;17.50;;;12.77;;
46447;SDS011;32145;50.390;30.778;2023-09-19T00:15:36;19.40;;;12.55;;
46447;SDS011;32145;50.390;30.778;2023-09-19T00:18:33;20.17;;;12.90;;
46447;SDS011;32145;50.390;30.778;2023-09-19T00:21:31;21.70;;;13.23;;
46447;SDS011;32145;50.390;30.778;2023-09-19T00:24:28;19.05;;;12.63;;
46447;SDS011;32145;50.390;30.778;2023-09-19T00:27:23;21.45;;;12.80;;
46447;SDS011;32145;50.390;30.778;2023-09-19T00:30:17;25.55;;;13.77;;
46447;SDS011;32145;50.390;30.778;2023-09-19T00:33:11;25.80;;;13.20;;
46447;SDS011;32145;50.390;30.778;2023-09-19T00:36:06;22.40;;;12.85;;
46447;SDS011;32145;50.390;30.778;2023-09-19T00:39:00;19.40;;;13.30;;
46447;SDS011;32145;50.390;30.778;2023-09-19T00:41:55;20.90;;;13.50;;
46447;SDS011;32145;50.390;30.778;2023-09-19T00:44:50;20.67;;;13.20;;
46447;SDS011;32145;50.390;30.778;2023-09-19T00:47:45;19.85;;;13.85;;
46447;SDS011;32145;50.390;30.778;2023-09-19T00:50:42;23.25;;;14.18;;
46447;SDS011;32145;50.390;30.778;2023-09-19T00:53:37;26.50;;;14.82;;
46447;SDS011;32145;50.390;30.778;2023-09-19T00:56:32;22.20;;;14.07;;
46447;SDS011;32145;50.390;30.778;2023-09-19T00:59:28;24.75;;;15.10;;
46447;SDS011;32145;50.390;30.778;2023-09-19T01:02:22;23.73;;;15.40;;
46447;SDS011;32145;50.390;30.778;2023-09-19T01:05:16;29.35;;;14.80;;
46447;SDS011;32145;50.390;30.778;2023-09-19T01:08:11;28.50;;;14.82;;
46447;SDS011;32145;50.390;30.778;2023-09-19T01:11:08;26.55;;;15.43;;
46447;SDS011;32145;50.390;30.778;2023-09-19T01:14:10;25.50;;;14.07;;
46447;SDS011;32145;50.390;30.778;2023-09-19T01:17:16;24.70;;;14.57;;
46447;SDS011;32145;50.390;30.778;2023-09-19T01:20:21;26.08;;;14.75;;
46447;SDS011;32145;50.390;30.778;2023-09-19T01:23:21;26.20;;;15.65;;
46447;SDS011;32145;50.390;30.778;2023-09-19T01:26:26;27.92;;;14.77;;
46447;SDS011;32145;50.390;30.778;2023-09-19T01:29:33;24.77;;;15.18;;
46447;SDS011;32145;50.390;30.778;2023-09-19T01:32:32;24.35;;;14.98;;
46447;SDS011;32145;50.390;30.778;2023-09-19T01:35:27;23.35;;;15.10;;
46447;SDS011;32145;50.390;30.778;2023-09-19T01:38:21;21.85;;;14.32;;
46447;SDS011;32145;50.390;30.778;2023-09-19T01:41:16;25.70;;;15.10;;
46447;SDS011;32145;50.390;30.778;2023-09-19T01:44:18;22.60;;;14.27;;
46447;SDS011;32145;50.390;30.778;2023-09-19T01:47:23;25.48;;;14.38;;
46447;SDS011;32145;50.390;30.778;2023-09-19T01:50:28;22.95;;;14.82;;
46447;SDS011;32145;50.390;30.778;2023-09-19T01:53:27;25.27;;;14.85;;
46447;SDS011;32145;50.390;30.778;2023-09-19T01:59:30;23.13;;;14.80;;
46447;SDS011;32145;50.390;30.778;2023-09-19T02:02:31;21.95;;;14.57;;
46447;SDS011;32145;50.390;30.778;2023-09-19T02:05:31;23.92;;;14.50;;
46447;SDS011;32145;50.390;30.778;2023-09-19T02:08:27;21.65;;;14.45;;
46447;SDS011;32145;50.390;30.778;2023-09-19T02:11:22;25.58;;;14.63;;
46447;SDS011;32145;50.390;30.778;2023-09-19T02:14:16;24.75;;;14.98;;
46447;SDS011;32145;50.390;30.778;2023-09-19T02:17:12;25.25;;;16.02;;
46447;SDS011;32145;50.390;30.778;2023-09-19T02:20:09;21.42;;;15.18;;
46447;SDS011;32145;50.390;30.778;2023-09-19T02:23:06;27.83;;;16.08;;
46447;SDS011;32145;50.390;30.778;2023-09-19T02:26:00;22.40;;;14.45;;
46447;SDS011;32145;50.390;30.778;2023-09-19T02:28:54;30.40;;;15.75;;
46447;SDS011;32145;50.390;30.778;2023-09-19T02:31:49;24.83;;;15.98;;
46447;SDS011;32145;50.390;30.778;2023-09-19T02:34:43;23.73;;;14.88;;
46447;SDS011;32145;50.390;30.778;2023-09-19T02:37:37;26.02;;;16.20;;
46447;SDS011;32145;50.390;30.778;2023-09-19T02:40:33;26.05;;;16.20;;
46447;SDS011;32145;50.390;30.778;2023-09-19T02:43:27;30.13;;;16.42;;
46447;SDS011;32145;50.390;30.778;2023-09-19T02:46:22;24.15;;;15.05;;
46447;SDS011;32145;50.390;30.778;2023-09-19T02:49:16;23.48;;;15.48;;
46447;SDS011;32145;50.390;30.778;2023-09-19T02:52:10;27.45;;;15.25;;
46447;SDS011;32145;50.390;30.778;2023-09-19T02:55:05;23.42;;;15.57;;
46447;SDS011;32145;50.390;30.778;2023-09-19T02:58:01;25.30;;;15.70;;
46447;SDS011;32145;50.390;30.778;2023-09-19T03:00:55;23.58;;;15.18;;
46447;SDS011;32145;50.390;30.778;2023-09-19T03:03:49;24.40;;;15.35;;
46447;SDS011;32145;50.390;30.778;2023-09-19T03:06:44;26.58;;;15.43;;
46447;SDS011;32145;50.390;30.778;2023-09-19T03:09:38;25.83;;;16.35;;
46447;SDS011;32145;50.390;30.778;2023-09-19T03:12:32;22.20;;;16.05;;
46447;SDS011;32145;50.390;30.778;2023-09-19T03:15:28;25.35;;;16.02;;
46447;SDS011;32145;50.390;30.778;2023-09-19T03:18:24;24.08;;;15.70;;
46447;SDS011;32145;50.390;30.778;2023-09-19T03:21:21;23.02;;;15.57;;
46447;SDS011;32145;50.390;30.778;2023-09-19T03:24:17;21.98;;;15.40;;
46447;SDS011;32145;50.390;30.778;2023-09-19T03:27:13;26.65;;;14.85;;
46447;SDS011;32145;50.390;30.778;2023-09-19T03:30:10;19.13;;;14.73;;
46447;SDS011;32145;50.390;30.778;2023-09-19T03:33:06;24.45;;;15.45;;
46447;SDS011;32145;50.390;30.778;2023-09-19T03:36:00;22.38;;;15.70;;
46447;SDS011;32145;50.390;30.778;2023-09-19T03:38:55;23.90;;;15.48;;
46447;SDS011;32145;50.390;30.778;2023-09-19T03:41:49;26.13;;;15.68;;
46447;SDS011;32145;50.390;30.778;2023-09-19T03:44:44;22.65;;;15.18;;
46447;SDS011;32145;50.390;30.778;2023-09-19T03:47:38;23.23;;;15.00;;
46447;SDS011;32145;50.390;30.778;2023-09-19T03:50:37;25.25;;;16.70;;
46447;SDS011;32145;50.390;30.778;2023-09-19T03:53:32;21.98;;;15.32;;
46447;SDS011;32145;50.390;30.778;2023-09-19T03:56:29;24.38;;;15.25;;
46447;SDS011;32145;50.390;30.778;2023-09-19T03:59:25;22.38;;;15.48;;
46447;SDS011;32145;50.390;30.778;2023-09-19T04:02:22;21.70;;;14.70;;
46447;SDS011;32145;50.390;30.778;2023-09-19T04:05:18;21.08;;;15.18;;
46447;SDS011;32145;50.390;30.778;2023-09-19T04:08:16;22.30;;;15.30;;
46447;SDS011;32145;50.390;30.778;2023-09-19T04:11:12;22.63;;;15.20;;
46447;SDS011;32145;50.390;30.778;2023-09-19T04:14:09;21.20;;;15.18;;
46447;SDS011;32145;50.390;30.778;2023-09-19T04:17:05;21.05;;;14.35;;
46447;SDS011;32145;50.390;30.778;2023-09-19T04:20:01;24.25;;;14.68;;
46447;SDS011;32145;50.390;30.778;2023-09-19T04:22:58;21.00;;;14.50;;
46447;SDS011;32145;50.390;30.778;2023-09-19T04:25:56;21.83;;;14.68;;
46447;SDS011;32145;50.390;30.778;2023-09-19T04:28:52;22.42;;;14.48;;
46447;SDS011;32145;50.390;30.778;2023-09-19T04:31:48;19.58;;;14.25;;
46447;SDS011;32145;50.390;30.778;2023-09-19T04:34:45;19.75;;;13.88;;
46447;SDS011;32145;50.390;30.778;2023-09-19T04:37:41;22.13;;;13.70;;
46447;SDS011;32145;50.390;30.778;2023-09-19T04:40:35;19.42;;;13.95;;
46447;SDS011;32145;50.390;30.778;2023-09-19T04:43:31;18.30;;;13.35;;
46447;SDS011;32145;50.390;30.778;2023-09-19T04:46:28;17.98;;;12.82;;
46447;SDS011;32145;50.390;30.778;2023-09-19T04:49:24;20.23;;;12.90;;
46447;SDS011;32145;50.390;30.778;2023-09-19T04:52:20;20.90;;;12.80;;
46447;SDS011;32145;50.390;30.778;2023-09-19T04:55:15;17.65;;;11.95;;
46447;SDS011;32145;50.390;30.778;2023-09-19T04:58:09;17.13;;;13.05;;
46447;SDS011;32145;50.390;30.778;2023-09-19T05:01:07;19.73;;;12.27;;
46447;SDS011;32145;50.390;30.778;2023-09-19T05:04:03;18.88;;;12.80;;
46447;SDS011;32145;50.390;30.778;2023-09-19T05:07:00;21.55;;;11.98;;
46447;SDS011;32145;50.390;30.778;2023-09-19T05:09:56;17.00;;;11.90;;
46447;SDS011;32145;50.390;30.778;2023-09-19T05:12:53;16.25;;;11.57;;
46447;SDS011;32145;50.390;30.778;2023-09-19T05:15:49;16.83;;;11.57;;
46447;SDS011;32145;50.390;30.778;2023-09-19T05:18:47;14.63;;;10.65;;
46447;SDS011;32145;50.390;30.778;2023-09-19T05:21:43;15.88;;;10.98;;
46447;SDS011;32145;50.390;30.778;2023-09-19T05:24:39;15.60;;;11.07;;
46447;SDS011;32145;50.390;30.778;2023-09-19T05:27:35;15.68;;;11.27;;
46447;SDS011;32145;50.390;30.778;2023-09-19T05:30:32;17.77;;;10.93;;
46447;SDS011;32145;50.390;30.778;2023-09-19T05:33:28;15.45;;;11.13;;
46447;SDS011;32145;50.390;30.778;2023-09-19T05:36:26;17.55;;;11.45;;
46447;SDS011;32145;50.390;30.778;2023-09-19T05:39:22;18.52;;;11.82;;
46447;SDS011;32145;50.390;30.778;2023-09-19T05:42:18;19.17;;;11.77;;
46447;SDS011;32145;50.390;30.778;2023-09-19T05:45:15;23.48;;;12.13;;
46447;SDS011;32145;50.390;30.778;2023-09-19T05:48:13;19.33;;;12.07;;
46447;SDS011;32145;50.390;30.778;2023-09-19T05:51:08;19.23;;;12.35;;
46447;SDS011;32145;50.390;30.778;2023-09-19T05:54:04;20.00;;;12.90;;
46447;SDS011;32145;50.390;30.778;2023-09-19T05:56:58;19.23;;;11.30;;
46447;SDS011;32145;50.390;30.778;2023-09-19T05:59:53;17.90;;;12.10;;
46447;SDS011;32145;50.390;30.778;2023-09-19T06:02:49;18.02;;;11.95;;
46447;SDS011;32145;50.390;30.778;2023-09-19T06:05:44;19.27;;;11.70;;
46447;SDS011;32145;50.390;30.778;2023-09-19T06:08:38;20.60;;;11.20;;
46447;SDS011;32145;50.390;30.778;2023-09-19T06:11:33;16.15;;;10.38;;
46447;SDS011;32145;50.390;30.778;2023-09-19T06:14:27;13.90;;;9.82;;
46447;SDS011;32145;50.390;30.778;2023-09-19T06:17:22;16.05;;;10.05;;
46447;SDS011;32145;50.390;30.778;2023-09-19T06:20:16;15.63;;;10.18;;
46447;SDS011;32145;50.390;30.778;2023-09-19T06:23:11;15.30;;;9.25;;
46447;SDS011;32145;50.390;30.778;2023-09-19T06:26:05;18.13;;;10.07;;
46447;SDS011;32145;50.390;30.778;2023-09-19T06:29:01;16.85;;;9.63;;
46447;SDS011;32145;50.390;30.778;2023-09-19T06:31:55;15.23;;;9.73;;
46447;SDS011;32145;50.390;30.778;2023-09-19T06:34:51;16.67;;;9.35;;
46447;SDS011;32145;50.390;30.778;2023-09-19T06:37:48;13.10;;;8.48;;
46447;SDS011;32145;50.390;30.778;2023-09-19T06:40:44;14.80;;;8.95;;
46447;SDS011;32145;50.390;30.778;2023-09-19T06:43:41;14.48;;;8.82;;
46447;SDS011;32145;50.390;30.778;2023-09-19T06:46:38;14.18;;;8.38;;
46447;SDS011;32145;50.390;30.778;2023-09-19T06:49:34;12.00;;;7.75;;
46447;SDS011;32145;50.390;30.778;2023-09-19T06:52:31;12.55;;;7.10;;
46447;SDS011;32145;50.390;30.778;2023-09-19T06:55:28;12.05;;;7.15;;
46447;SDS011;32145;50.390;30.778;2023-09-19T06:58:24;10.02;;;6.53;;
46447;SDS011;32145;50.390;30.778;2023-09-19T07:01:20;9.65;;;6.35;;
46447;SDS011;32145;50.390;30.778;2023-09-19T07:04:18;12.23;;;6.75;;
46447;SDS011;32145;50.390;30.778;2023-09-19T07:07:14;10.70;;;6.18;;
46447;SDS011;32145;50.390;30.778;2023-09-19T07:10:10;9.65;;;6.18;;
46447;SDS011;32145;50.390;30.778;2023-09-19T07:13:07;11.93;;;6.75;;
46447;SDS011;32145;50.390;30.778;2023-09-19T07:16:03;9.27;;;6.38;;
46447;SDS011;32145;50.390;30.778;2023-09-19T07:19:00;12.27;;;6.35;;
46447;SDS011;32145;50.390;30.778;2023-09-19T07:21:57;11.23;;;6.78;;
46447;SDS011;32145;50.390;30.778;2023-09-19T07:24:54;9.13;;;6.18;;
46447;SDS011;32145;50.390;30.778;2023-09-19T07:27:50;7.95;;;5.80;;
46447;SDS011;32145;50.390;30.778;2023-09-19T07:30:46;9.30;;;5.72;;
46447;SDS011;32145;50.390;30.778;2023-09-19T07:33:43;9.13;;;6.43;;
46447;SDS011;32145;50.390;30.778;2023-09-19T07:36:37;8.88;;;6.40;;
46447;SDS011;32145;50.390;30.778;2023-09-19T07:39:33;10.23;;;5.47;;
46447;SDS011;32145;50.390;30.778;2023-09-19T07:42:27;12.15;;;6.10;;
46447;SDS011;32145;50.390;30.778;2023-09-19T07:45:21;9.18;;;5.63;;
46447;SDS011;32145;50.390;30.778;2023-09-19T07:48:16;10.88;;;5.75;;
46447;SDS011;32145;50.390;30.778;2023-09-19T07:51:10;7.80;;;6.18;;
46447;SDS011;32145;50.390;30.778;2023-09-19T07:54:07;7.10;;;5.63;;
46447;SDS011;32145;50.390;30.778;2023-09-19T07:57:04;6.45;;;5.00;;
46447;SDS011;32145;50.390;30.778;2023-09-19T08:00:00;6.97;;;5.35;;
46447;SDS011;32145;50.390;30.778;2023-09-19T08:02:57;6.72;;;5.20;;
46447;SDS011;32145;50.390;30.778;2023-09-19T08:05:53;6.07;;;5.07;;
46447;SDS011;32145;50.390;30.778;2023-09-19T08:08:51;8.27;;;5.35;;
46447;SDS011;32145;50.390;30.778;2023-09-19T08:11:48;7.70;;;4.72;;
46447;SDS011;32145;50.390;30.778;2023-09-19T08:14:46;7.72;;;5.07;;
46447;SDS011;32145;50.390;30.778;2023-09-19T08:17:42;7.47;;;4.95;;
46447;SDS011;32145;50.390;30.778;2023-09-19T08:20:39;9.40;;;4.95;;
46447;SDS011;32145;50.390;30.778;2023-09-19T08:23:35;6.53;;;4.63;;
46447;SDS011;32145;50.390;30.778;2023-09-19T08:26:31;10.02;;;4.68;;
46447;SDS011;32145;50.390;30.778;2023-09-19T08:29:27;5.80;;;4.53;;
46447;SDS011;32145;50.390;30.778;2023-09-19T08:32:25;6.30;;;4.40;;
46447;SDS011;32145;50.390;30.778;2023-09-19T08:35:19;5.53;;;4.20;;
46447;SDS011;32145;50.390;30.778;2023-09-19T08:38:14;9.25;;;4.18;;
46447;SDS011;32145;50.390;30.778;2023-09-19T08:41:09;7.70;;;4.00;;
46447;SDS011;32145;50.390;30.778;2023-09-19T08:44:03;9.40;;;4.05;;
46447;SDS011;32145;50.390;30.778;2023-09-19T08:46:59;8.02;;;3.80;;
46447;SDS011;32145;50.390;30.778;2023-09-19T08:50:08;5.22;;;3.65;;
46447;SDS011;32145;50.390;30.778;2023-09-19T08:53:06;6.43;;;3.55;;
46447;SDS011;32145;50.390;30.778;2023-09-19T08:56:05;6.35;;;3.95;;
46447;SDS011;32145;50.390;30.778;2023-09-19T08:59:03;7.95;;;3.58;;
46447;SDS011;32145;50.390;30.778;2023-09-19T09:01:57;5.10;;;3.55;;
46447;SDS011;32145;50.390;30.778;2023-09-19T09:04:52;6.25;;;3.55;;
46447;SDS011;32145;50.390;30.778;2023-09-19T09:07:49;5.78;;;3.42;;
46447;SDS011;32145;50.390;30.778;2023-09-19T09:10:44;8.38;;;3.78;;
46447;SDS011;32145;50.390;30.778;2023-09-19T09:13:38;5.32;;;3.30;;
46447;SDS011;32145;50.390;30.778;2023-09-19T09:16:33;7.05;;;3.47;;
46447;SDS011;32145;50.390;30.778;2023-09-19T09:19:27;7.50;;;3.80;;
46447;SDS011;32145;50.390;30.778;2023-09-19T09:22:21;8.40;;;3.58;;
46447;SDS011;32145;50.390;30.778;2023-09-19T09:25:17;12.18;;;3.50;;
46447;SDS011;32145;50.390;30.778;2023-09-19T09:28:11;5.70;;;3.28;;
46447;SDS011;32145;50.390;30.778;2023-09-19T09:31:24;5.00;;;3.33;;
46447;SDS011;32145;50.390;30.778;2023-09-19T09:34:19;5.05;;;3.47;;
46447;SDS011;32145;50.390;30.778;2023-09-19T09:37:13;7.55;;;3.08;;
46447;SDS011;32145;50.390;30.778;2023-09-19T09:40:10;6.75;;;3.30;;
46447;SDS011;32145;50.390;30.778;2023-09-19T09:43:09;8.05;;;3.70;;
46447;SDS011;32145;50.390;30.778;2023-09-19T09:46:21;6.20;;;3.30;;
46447;SDS011;32145;50.390;30.778;2023-09-19T09:49:22;5.90;;;3.15;;
46447;SDS011;32145;50.390;30.778;2023-09-19T09:52:19;8.23;;;3.67;;
46447;SDS011;32145;50.390;30.778;2023-09-19T09:55:16;4.30;;;3.20;;
46447;SDS011;32145;50.390;30.778;2023-09-19T09:58:18;8.80;;;3.20;;
46447;SDS011;32145;50.390;30.778;2023-09-19T10:01:12;8.85;;;3.63;;
46447;SDS011;32145;50.390;30.778;2023-09-19T10:04:06;4.47;;;3.00;;
46447;SDS011;32145;50.390;30.778;2023-09-19T10:07:01;16.50;;;3.45;;
46447;SDS011;32145;50.390;30.778;2023-09-19T10:09:55;6.32;;;3.50;;
46447;SDS011;32145;50.390;30.778;2023-09-19T10:12:50;5.45;;;2.90;;
46447;SDS011;32145;50.390;30.778;2023-09-19T10:15:50;4.88;;;3.08;;
46447;SDS011;32145;50.390;30.778;2023-09-19T10:18:45;5.90;;;2.75;;
46447;SDS011;32145;50.390;30.778;2023-09-19T10:21:42;4.85;;;3.25;;
46447;SDS011;32145;50.390;30.778;2023-09-19T10:24:37;7.18;;;3.08;;
46447;SDS011;32145;50.390;30.778;2023-09-19T10:27:33;5.55;;;3.30;;
46447;SDS011;32145;50.390;30.778;2023-09-19T10:30:31;8.32;;;2.92;;
46447;SDS011;32145;50.390;30.778;2023-09-19T10:33:31;5.88;;;3.15;;
46447;SDS011;32145;50.390;30.778;2023-09-19T10:36:32;6.55;;;2.92;;
46447;SDS011;32145;50.390;30.778;2023-09-19T10:39:29;5.63;;;3.13;;
46447;SDS011;32145;50.390;30.778;2023-09-19T10:42:27;7.65;;;3.35;;
46447;SDS011;32145;50.390;30.778;2023-09-19T10:45:26;4.35;;;2.80;;
46447;SDS011;32145;50.390;30.778;2023-09-19T10:48:26;8.07;;;2.95;;
46447;SDS011;32145;50.390;30.778;2023-09-19T10:51:24;5.65;;;3.10;;
46447;SDS011;32145;50.390;30.778;2023-09-19T10:54:26;5.65;;;3.03;;
46447;SDS011;32145;50.390;30.778;2023-09-19T10:57:23;5.68;;;3.20;;
46447;SDS011;32145;50.390;30.778;2023-09-19T11:00:18;7.00;;;3.28;;
46447;SDS011;32145;50.390;30.778;2023-09-19T11:03:21;6.00;;;3.20;;
46447;SDS011;32145;50.390;30.778;2023-09-19T11:06:17;6.95;;;3.67;;
46447;SDS011;32145;50.390;30.778;2023-09-19T11:09:13;5.82;;;3.08;;
46447;SDS011;32145;50.390;30.778;2023-09-19T11:12:10;4.40;;;3.10;;
46447;SDS011;32145;50.390;30.778;2023-09-19T11:15:06;7.53;;;3.55;;
46447;SDS011;32145;50.390;30.778;2023-09-19T11:18:03;4.22;;;2.78;;
46447;SDS011;32145;50.390;30.778;2023-09-19T11:21:39;6.88;;;2.75;;
46447;SDS011;32145;50.390;30.778;2023-09-19T11:24:38;8.13;;;3.33;;
46447;SDS011;32145;50.390;30.778;2023-09-19T11:27:34;7.07;;;3.22;;
46447;SDS011;32145;50.390;30.778;2023-09-19T11:30:30;8.15;;;3.45;;
46447;SDS011;32145;50.390;30.778;2023-09-19T11:33:28;6.82;;;3.30;;
46447;SDS011;32145;50.390;30.778;2023-09-19T11:36:28;6.32;;;3.08;;
46447;SDS011;32145;50.390;30.778;2023-09-19T11:39:30;9.57;;;3.38;;
46447;SDS011;32145;50.390;30.778;2023-09-19T11:42:44;5.18;;;3.15;;
46447;SDS011;32145;50.390;30.778;2023-09-19T11:49:05;6.03;;;3.22;;
46447;SDS011;32145;50.390;30.778;2023-09-19T11:52:04;8.98;;;3.97;;
46447;SDS011;32145;50.390;30.778;2023-09-19T11:55:00;5.95;;;3.15;;
46447;SDS011;32145;50.390;30.778;2023-09-19T11:57:58;4.78;;;2.97;;
46447;SDS011;32145;50.390;30.778;2023-09-19T12:00:55;13.82;;;3.13;;
46447;SDS011;32145;50.390;30.778;2023-09-19T12:03:54;5.63;;;2.80;;
46447;SDS011;32145;50.390;30.778;2023-09-19T12:06:56;5.97;;;3.05;;
46447;SDS011;32145;50.390;30.778;2023-09-19T12:10:02;6.18;;;3.38;;
46447;SDS011;32145;50.390;30.778;2023-09-19T12:13:00;7.03;;;3.28;;
46447;SDS011;32145;50.390;30.778;2023-09-19T12:15:57;8.70;;;3.43;;
46447;SDS011;32145;50.390;30.778;2023-09-19T12:18:54;8.45;;;3.30;;
46447;SDS011;32145;50.390;30.778;2023-09-19T12:21:53;4.75;;;3.05;;
46447;SDS011;32145;50.390;30.778;2023-09-19T12:24:50;7.22;;;3.20;;
46447;SDS011;32145;50.390;30.778;2023-09-19T12:27:47;8.85;;;3.40;;
46447;SDS011;32145;50.390;30.778;2023-09-19T12:30:43;5.25;;;3.05;;
46447;SDS011;32145;50.390;30.778;2023-09-19T12:33:38;6.47;;;3.08;;
46447;SDS011;32145;50.390;30.778;2023-09-19T12:36:32;8.35;;;3.30;;
46447;SDS011;32145;50.390;30.778;2023-09-19T12:39:26;6.90;;;3.40;;
46447;SDS011;32145;50.390;30.778;2023-09-19T12:42:21;6.55;;;3.45;;
46447;SDS011;32145;50.390;30.778;2023-09-19T12:45:16;11.75;;;2.97;;
46447;SDS011;32145;50.390;30.778;2023-09-19T12:48:18;5.38;;;2.95;;
46447;SDS011;32145;50.390;30.778;2023-09-19T12:51:17;5.45;;;3.42;;
46447;SDS011;32145;50.390;30.778;2023-09-19T12:54:11;3.88;;;2.90;;
46447;SDS011;32145;50.390;30.778;2023-09-19T12:57:05;6.88;;;3.65;;
46447;SDS011;32145;50.390;30.778;2023-09-19T13:00:00;7.80;;;3.63;;
46447;SDS011;32145;50.390;30.778;2023-09-19T13:03:14;7.93;;;3.50;;
46447;SDS011;32145;50.390;30.778;2023-09-19T13:06:13;5.50;;;3.60;;
46447;SDS011;32145;50.390;30.778;2023-09-19T13:09:10;8.30;;;3.70;;
46447;SDS011;32145;50.390;30.778;2023-09-19T13:12:00;6.15;;;3.00;;
46447;SDS011;32145;50.390;30.778;2023-09-19T13:15:06;7.53;;;3.15;;
46447;SDS011;32145;50.390;30.778;2023-09-19T13:18:03;6.00;;;3.20;;
46447;SDS011;32145;50.390;30.778;2023-09-19T13:21:07;7.22;;;3.30;;
46447;SDS011;32145;50.390;30.778;2023-09-19T13:24:19;7.18;;;3.30;;
46447;SDS011;32145;50.390;30.778;2023-09-19T13:27:14;7.68;;;3.25;;
46447;SDS011;32145;50.390;30.778;2023-09-19T13:30:11;7.00;;;3.33;;
46447;SDS011;32145;50.390;30.778;2023-09-19T13:33:09;5.63;;;3.30;;
46447;SDS011;32145;50.390;30.778;2023-09-19T13:36:06;6.05;;;3.30;;
46447;SDS011;32145;50.390;30.778;2023-09-19T13:39:02;5.57;;;3.38;;
46447;SDS011;32145;50.390;30.778;2023-09-19T13:42:00;7.30;;;3.33;;
46447;SDS011;32145;50.390;30.778;2023-09-19T13:44:57;5.95;;;3.13;;
46447;SDS011;32145;50.390;30.778;2023-09-19T13:47:51;5.32;;;3.13;;
46447;SDS011;32145;50.390;30.778;2023-09-19T13:50:45;6.47;;;3.47;;
46447;SDS011;32145;50.390;30.778;2023-09-19T13:53:40;6.07;;;3.00;;
46447;SDS011;32145;50.390;30.778;2023-09-19T13:56:34;9.95;;;3.70;;
46447;SDS011;32145;50.390;30.778;2023-09-19T13:59:30;7.28;;;3.50;;
46447;SDS011;32145;50.390;30.778;2023-09-19T14:02:24;6.72;;;3.58;;
46447;SDS011;32145;50.390;30.778;2023-09-19T14:05:18;6.65;;;3.47;;
46447;SDS011;32145;50.390;30.778;2023-09-19T14:08:13;5.82;;;3.17;;
46447;SDS011;32145;50.390;30.778;2023-09-19T14:11:07;5.90;;;3.10;;
46447;SDS011;32145;50.390;30.778;2023-09-19T14:14:02;6.07;;;3.35;;
46447;SDS011;32145;50.390;30.778;2023-09-19T14:16:57;10.73;;;3.97;;
46447;SDS011;32145;50.390;30.778;2023-09-19T14:19:54;5.47;;;3.28;;
46447;SDS011;32145;50.390;30.778;2023-09-19T14:22:50;7.40;;;3.17;;
46447;SDS011;32145;50.390;30.778;2023-09-19T14:25:46;7.50;;;3.38;;
46447;SDS011;32145;50.390;30.778;2023-09-19T14:28:43;7.80;;;3.50;;
46447;SDS011;32145;50.390;30.778;2023-09-19T14:31:40;8.65;;;3.67;;
46447;SDS011;32145;50.390;30.778;2023-09-19T14:34:38;5.93;;;3.40;;
46447;SDS011;32145;50.390;30.778;2023-09-19T14:37:33;8.00;;;3.88;;
46447;SDS011;32145;50.390;30.778;2023-09-19T14:40:27;5.25;;;3.28;;
46447;SDS011;32145;50.390;30.778;2023-09-19T14:43:21;7.25;;;3.25;;
46447;SDS011;32145;50.390;30.778;2023-09-19T14:46:16;8.45;;;3.58;;
46447;SDS011;32145;50.390;30.778;2023-09-19T14:49:12;8.20;;;3.35;;
46447;SDS011;32145;50.390;30.778;2023-09-19T14:52:11;10.48;;;3.30;;
46447;SDS011;32145;50.390;30.778;2023-09-19T14:55:07;7.95;;;3.40;;
46447;SDS011;32145;50.390;30.778;2023-09-19T14:58:02;6.60;;;3.53;;
46447;SDS011;32145;50.390;30.778;2023-09-19T15:01:01;6.50;;;3.67;;
46447;SDS011;32145;50.390;30.778;2023-09-19T15:03:57;6.70;;;3.60;;
46447;SDS011;32145;50.390;30.778;2023-09-19T15:06:53;5.28;;;3.67;;
46447;SDS011;32145;50.390;30.778;2023-09-19T15:09:51;9.82;;;3.90;;
46447;SDS011;32145;50.390;30.778;2023-09-19T15:12:47;7.05;;;3.72;;
46447;SDS011;32145;50.390;30.778;2023-09-19T15:15:44;6.32;;;4.00;;
46447;SDS011;32145;50.390;30.778;2023-09-19T15:18:40;6.72;;;3.60;;
46447;SDS011;32145;50.390;30.778;2023-09-19T15:21:38;9.30;;;4.10;;
46447;SDS011;32145;50.390;30.778;2023-09-19T15:24:32;9.57;;;3.83;;
46447;SDS011;32145;50.390;30.778;2023-09-19T15:27:28;6.90;;;3.65;;
46447;SDS011;32145;50.390;30.778;2023-09-19T15:30:24;5.38;;;3.70;;
46447;SDS011;32145;50.390;30.778;2023-09-19T15:33:20;7.18;;;3.70;;
46447;SDS011;32145;50.390;30.778;2023-09-19T15:36:17;8.68;;;4.25;;
46447;SDS011;32145;50.390;30.778;2023-09-19T15:39:13;5.25;;;3.53;;
46447;SDS011;32145;50.390;30.778;2023-09-19T15:42:10;6.10;;;3.50;;
46447;SDS011;32145;50.390;30.778;2023-09-19T15:45:06;6.43;;;3.85;;
46447;SDS011;32145;50.390;30.778;2023-09-19T15:48:01;6.28;;;3.63;;
46447;SDS011;32145;50.390;30.778;2023-09-19T15:50:55;6.90;;;3.85;;
46447;SDS011;32145;50.390;30.778;2023-09-19T15:53:51;4.38;;;3.50;;
46447;SDS011;32145;50.390;30.778;2023-09-19T15:56:45;8.23;;;4.07;;
46447;SDS011;32145;50.390;30.778;2023-09-19T15:59:40;7.25;;;3.65;;
46447;SDS011;32145;50.390;30.778;2023-09-19T16:02:35;12.13;;;3.97;;
46447;SDS011;32145;50.390;30.778;2023-09-19T16:05:34;7.57;;;3.95;;
46447;SDS011;32145;50.390;30.778;2023-09-19T16:11:23;8.00;;;3.90;;
46447;SDS011;32145;50.390;30.778;2023-09-19T16:14:17;9.70;;;3.83;;
46447;SDS011;32145;50.390;30.778;2023-09-19T16:17:12;7.07;;;4.20;;
46447;SDS011;32145;50.390;30.778;2023-09-19T16:20:08;12.90;;;4.20;;
46447;SDS011;32145;50.390;30.778;2023-09-19T16:23:02;8.10;;;4.60;;
46447;SDS011;32145;50.390;30.778;2023-09-19T16:26:01;10.80;;;4.50;;
46447;SDS011;32145;50.390;30.778;2023-09-19T16:28:58;7.88;;;4.32;;
46447;SDS011;32145;50.390;30.778;2023-09-19T16:31:55;9.57;;;4.70;;
46447;SDS011;32145;50.390;30.778;2023-09-19T16:34:51;13.43;;;4.70;;
46447;SDS011;32145;50.390;30.778;2023-09-19T16:37:49;10.60;;;4.88;;
46447;SDS011;32145;50.390;30.778;2023-09-19T16:40:50;12.02;;;4.90;;
46447;SDS011;32145;50.390;30.778;2023-09-19T16:43:48;10.32;;;5.15;;
46447;SDS011;32145;50.390;30.778;2023-09-19T16:46:44;10.40;;;4.78;;
46447;SDS011;32145;50.390;30.778;2023-09-19T16:49:40;10.05;;;5.60;;
46447;SDS011;32145;50.390;30.778;2023-09-19T16:52:36;13.10;;;5.60;;
46447;SDS011;32145;50.390;30.778;2023-09-19T16:55:34;10.65;;;5.38;;
46447;SDS011;32145;50.390;30.778;2023-09-19T16:58:30;11.13;;;5.30;;
46447;SDS011;32145;50.390;30.778;2023-09-19T17:01:27;10.68;;;5.68;;
46447;SDS011;32145;50.390;30.778;2023-09-19T17:04:23;12.88;;;5.45;;
46447;SDS011;32145;50.390;30.778;2023-09-19T17:07:19;11.18;;;5.13;;
46447;SDS011;32145;50.390;30.778;2023-09-19T17:10:16;15.00;;;6.13;;
46447;SDS011;32145;50.390;30.778;2023-09-19T17:13:13;12.88;;;5.97;;
46447;SDS011;32145;50.390;30.778;2023-09-19T17:16:11;13.43;;;6.00;;
46447;SDS011;32145;50.390;30.778;2023-09-19T17:19:08;12.40;;;5.43;;
46447;SDS011;32145;50.390;30.778;2023-09-19T17:22:04;10.50;;;5.57;;
46447;SDS011;32145;50.390;30.778;2023-09-19T17:25:01;11.25;;;6.13;;